Meath Environmental Platform

Observations for Trim Market St

Time AQI Temp °C Hum % Pres Pa CO μg/m³ H₂S μg/m³ NO μg/m³ NO₂ μg/m³ O₃ μg/m³ SO₂ μg/m³ PM1 μg/m³ PM2.5 μg/m³ PM10 μg/m³
Tuesday 11 August 2026
17:10 3 38.6 19 66,973 0 33.1 0 52.46 40.17 4.69 2.14 6.01 6.61
17:08 3 38.8 19 66,994 0 30.97 0.16 85.78 35.39 4.76 1.43 4.91 5.4
17:07 3 39 18 67,005 0 29.65 0.03 17.33 67.98 8.74 0.71 4.36 4.8
17:01 3 40.3 18 67,163 0 10.25 0.02 15.1 56.99 8.49 0.71 4.4 4.84
16:56 3 41.3 17 67,258 0 12.11 0 18.13 73.39 7.83 0.71 4.42 4.87
16:54 3 41.5 17 67,292 0 16.3 0 16.32 96.71 8.53 0 3.31 3.65
16:52 3 41.8 17 67,308 0 1.54 0 15.02 93.22 8.61 0.71 5 5.5
16:47 3 42.3 16 67,369 0 0 0 15 85 9.16 0 3.89 4.28
16:46 3 42.4 16 67,380 0 0 0 14.99 92.14 9.3 0.71 3.89 4.28
16:45 3 42.5 16 67,367 0 1.9 0 15.05 85.08 8.59 0 3.9 4.29
16:44 3 42.6 16 67,377 0 0 0 14.96 84.56 8.48 0.71 4.46 4.91
16:43 3 42.7 16 67,384 0 0.07 0 14.95 103.96 9.36 0 3.9 4.29
16:42 3 42.7 16 67,398 0 0 0 16.1 76.02 7.75 0 3.91 4.3
16:41 3 42.8 16 67,384 0 0 0 15.02 81.41 8.12 0 3.35 3.68
16:40 3 42.9 16 67,398 0 0 0 15.01 90.99 9.21 0 3.91 4.31
16:39 3 42.9 16 67,412 0 0 0 15.01 85.57 8.07 0.71 4.48 4.93
16:38 3 43 16 67,422 0 0 0 15.04 89.47 8 0.71 4.48 4.93
16:37 3 43 16 67,404 0 0 0 15.02 81.39 7.62 0 4.48 4.93
16:36 3 43 16 67,412 0 0 0 19.11 58.48 5.66 0 3.91 4.31
16:34 3 43 16 67,430 0 0 0 17.21 75.25 7.03 0.71 4.48 4.93